Divernon, Illinois
Current Conditions -  °F | °C
As of 4:55 AM on Monday 20 Oct 2014 (Local Time) from KTAZ Reporting Station
Overcast Overcast  
Wind Chill: 50°   Ceiling: 8500
Heat Index: 50°   Visibility: 10mi
Dew Point: 46°   Wind: 7mph
Humidity: 87%   Direction: 220°SW
Pressure: 29.93"   Gusts: NA
Location:  39.57°N, 89.66°W
Report Text: KTAZ 200955Z AUTO 22006KT 10SM OVC085 10/08 A2993 RMK AO2
Loading
Personal Weather Stations






























Interactive Weather Map
Tropical Storm Tracking
New forecast layout! Learn more

10-Day Weather Forecast

Advertisements
Track Severe Weather on mobile